sensor_id;sensor_type;location;lat;lon;timestamp;P1;durP1;ratioP1;P2;durP2;ratioP2
56269;SDS011;42176;43.240;27.880;2022-09-21T00:01:21;1.25;;;1.10;;
56269;SDS011;42176;43.240;27.880;2022-09-21T00:03:53;1.15;;;1.05;;
56269;SDS011;42176;43.240;27.880;2022-09-21T00:06:20;4.18;;;1.20;;
56269;SDS011;42176;43.240;27.880;2022-09-21T00:08:47;2.08;;;1.15;;
56269;SDS011;42176;43.240;27.880;2022-09-21T00:11:14;2.30;;;1.00;;
56269;SDS011;42176;43.240;27.880;2022-09-21T00:13:42;1.70;;;1.00;;
56269;SDS011;42176;43.240;27.880;2022-09-21T00:16:09;1.10;;;0.93;;
56269;SDS011;42176;43.240;27.880;2022-09-21T00:18:35;2.90;;;1.00;;
56269;SDS011;42176;43.240;27.880;2022-09-21T00:21:05;1.98;;;1.42;;
56269;SDS011;42176;43.240;27.880;2022-09-21T00:23:33;1.20;;;1.17;;
56269;SDS011;42176;43.240;27.880;2022-09-21T00:26:07;5.13;;;1.80;;
56269;SDS011;42176;43.240;27.880;2022-09-21T00:28:35;1.23;;;1.00;;
56269;SDS011;42176;43.240;27.880;2022-09-21T00:31:02;1.42;;;1.27;;
56269;SDS011;42176;43.240;27.880;2022-09-21T00:33:33;1.23;;;1.07;;
56269;SDS011;42176;43.240;27.880;2022-09-21T00:36:05;1.48;;;1.30;;
56269;SDS011;42176;43.240;27.880;2022-09-21T00:38:34;3.60;;;1.20;;
56269;SDS011;42176;43.240;27.880;2022-09-21T00:41:00;2.17;;;1.40;;
56269;SDS011;42176;43.240;27.880;2022-09-21T00:43:26;2.05;;;1.23;;
56269;SDS011;42176;43.240;27.880;2022-09-21T00:45:54;2.25;;;1.10;;
56269;SDS011;42176;43.240;27.880;2022-09-21T00:48:25;1.45;;;1.27;;
56269;SDS011;42176;43.240;27.880;2022-09-21T00:50:52;1.58;;;1.05;;
56269;SDS011;42176;43.240;27.880;2022-09-21T00:53:21;4.13;;;1.38;;
56269;SDS011;42176;43.240;27.880;2022-09-21T00:55:47;1.80;;;1.27;;
56269;SDS011;42176;43.240;27.880;2022-09-21T00:58:21;2.13;;;1.30;;
56269;SDS011;42176;43.240;27.880;2022-09-21T01:00:52;1.45;;;1.10;;
56269;SDS011;42176;43.240;27.880;2022-09-21T01:03:19;3.45;;;1.83;;
56269;SDS011;42176;43.240;27.880;2022-09-21T01:05:44;1.50;;;1.20;;
56269;SDS011;42176;43.240;27.880;2022-09-21T01:08:10;2.60;;;1.13;;
56269;SDS011;42176;43.240;27.880;2022-09-21T01:18:57;6.28;;;1.02;;
56269;SDS011;42176;43.240;27.880;2022-09-21T01:21:47;1.60;;;1.27;;
56269;SDS011;42176;43.240;27.880;2022-09-21T01:24:34;2.67;;;1.23;;
56269;SDS011;42176;43.240;27.880;2022-09-21T01:27:08;1.08;;;0.80;;
56269;SDS011;42176;43.240;27.880;2022-09-21T01:32:21;8.60;;;1.20;;
56269;SDS011;42176;43.240;27.880;2022-09-21T01:40:19;1.08;;;0.90;;
56269;SDS011;42176;43.240;27.880;2022-09-21T01:42:47;2.30;;;0.80;;
56269;SDS011;42176;43.240;27.880;2022-09-21T01:45:17;1.40;;;1.00;;
56269;SDS011;42176;43.240;27.880;2022-09-21T01:47:48;1.00;;;1.00;;
56269;SDS011;42176;43.240;27.880;2022-09-21T01:50:15;4.78;;;0.80;;
56269;SDS011;42176;43.240;27.880;2022-09-21T01:52:47;1.17;;;0.98;;
56269;SDS011;42176;43.240;27.880;2022-09-21T01:58:03;2.45;;;1.05;;
56269;SDS011;42176;43.240;27.880;2022-09-21T02:00:35;1.23;;;1.13;;
56269;SDS011;42176;43.240;27.880;2022-09-21T02:03:11;2.72;;;0.90;;
56269;SDS011;42176;43.240;27.880;2022-09-21T02:05:53;1.85;;;1.00;;
56269;SDS011;42176;43.240;27.880;2022-09-21T02:08:21;1.13;;;0.77;;
56269;SDS011;42176;43.240;27.880;2022-09-21T02:10:48;2.58;;;0.98;;
56269;SDS011;42176;43.240;27.880;2022-09-21T02:13:16;1.98;;;1.13;;
56269;SDS011;42176;43.240;27.880;2022-09-21T02:15:47;2.35;;;1.40;;
56269;SDS011;42176;43.240;27.880;2022-09-21T02:18:19;2.75;;;1.92;;
56269;SDS011;42176;43.240;27.880;2022-09-21T02:21:14;0.98;;;0.98;;
56269;SDS011;42176;43.240;27.880;2022-09-21T02:26:46;2.17;;;1.23;;
56269;SDS011;42176;43.240;27.880;2022-09-21T02:29:22;1.00;;;0.88;;
56269;SDS011;42176;43.240;27.880;2022-09-21T02:37:54;5.15;;;3.60;;
56269;SDS011;42176;43.240;27.880;2022-09-21T02:41:04;1.73;;;1.27;;
56269;SDS011;42176;43.240;27.880;2022-09-21T02:43:26;6.32;;;1.10;;
56269;SDS011;42176;43.240;27.880;2022-09-21T02:46:00;1.80;;;1.17;;
56269;SDS011;42176;43.240;27.880;2022-09-21T02:48:49;1.13;;;1.02;;
56269;SDS011;42176;43.240;27.880;2022-09-21T02:51:20;1.42;;;0.98;;
56269;SDS011;42176;43.240;27.880;2022-09-21T02:53:52;1.90;;;0.95;;
56269;SDS011;42176;43.240;27.880;2022-09-21T02:56:19;2.63;;;1.00;;
56269;SDS011;42176;43.240;27.880;2022-09-21T02:58:46;1.20;;;0.90;;
56269;SDS011;42176;43.240;27.880;2022-09-21T03:01:18;3.55;;;1.20;;
56269;SDS011;42176;43.240;27.880;2022-09-21T03:03:45;1.15;;;1.05;;
56269;SDS011;42176;43.240;27.880;2022-09-21T03:06:11;1.85;;;1.55;;
56269;SDS011;42176;43.240;27.880;2022-09-21T03:08:36;1.63;;;1.13;;
56269;SDS011;42176;43.240;27.880;2022-09-21T03:11:02;4.55;;;1.42;;
56269;SDS011;42176;43.240;27.880;2022-09-21T03:13:27;2.05;;;1.30;;
56269;SDS011;42176;43.240;27.880;2022-09-21T03:16:00;1.35;;;1.08;;
56269;SDS011;42176;43.240;27.880;2022-09-21T03:18:27;6.72;;;2.22;;
56269;SDS011;42176;43.240;27.880;2022-09-21T03:20:53;3.83;;;1.25;;
56269;SDS011;42176;43.240;27.880;2022-09-21T03:23:19;1.75;;;1.45;;
56269;SDS011;42176;43.240;27.880;2022-09-21T03:25:45;6.32;;;1.95;;
56269;SDS011;42176;43.240;27.880;2022-09-21T03:28:12;4.85;;;2.00;;
56269;SDS011;42176;43.240;27.880;2022-09-21T03:30:38;2.92;;;1.50;;
56269;SDS011;42176;43.240;27.880;2022-09-21T03:33:04;8.15;;;2.10;;
56269;SDS011;42176;43.240;27.880;2022-09-21T03:35:30;4.75;;;2.00;;
56269;SDS011;42176;43.240;27.880;2022-09-21T03:37:58;4.70;;;1.85;;
56269;SDS011;42176;43.240;27.880;2022-09-21T03:40:24;5.40;;;1.77;;
56269;SDS011;42176;43.240;27.880;2022-09-21T03:42:51;2.85;;;1.67;;
56269;SDS011;42176;43.240;27.880;2022-09-21T03:45:17;5.32;;;2.30;;
56269;SDS011;42176;43.240;27.880;2022-09-21T03:47:43;4.13;;;1.92;;
56269;SDS011;42176;43.240;27.880;2022-09-21T03:50:09;3.30;;;1.83;;
56269;SDS011;42176;43.240;27.880;2022-09-21T03:52:35;4.95;;;1.90;;
56269;SDS011;42176;43.240;27.880;2022-09-21T03:55:02;9.98;;;3.50;;
56269;SDS011;42176;43.240;27.880;2022-09-21T03:57:31;12.43;;;5.63;;
56269;SDS011;42176;43.240;27.880;2022-09-21T03:59:58;12.10;;;5.20;;
56269;SDS011;42176;43.240;27.880;2022-09-21T04:02:23;3.80;;;2.38;;
56269;SDS011;42176;43.240;27.880;2022-09-21T04:04:48;9.57;;;2.70;;
56269;SDS011;42176;43.240;27.880;2022-09-21T04:07:14;13.02;;;2.63;;
56269;SDS011;42176;43.240;27.880;2022-09-21T04:09:40;8.77;;;1.73;;
56269;SDS011;42176;43.240;27.880;2022-09-21T04:12:06;3.90;;;2.00;;
56269;SDS011;42176;43.240;27.880;2022-09-21T04:14:32;9.07;;;2.22;;
56269;SDS011;42176;43.240;27.880;2022-09-21T04:16:58;10.18;;;2.30;;
56269;SDS011;42176;43.240;27.880;2022-09-21T04:19:23;7.20;;;1.90;;
56269;SDS011;42176;43.240;27.880;2022-09-21T04:21:49;5.10;;;1.80;;
56269;SDS011;42176;43.240;27.880;2022-09-21T04:24:19;10.18;;;2.30;;
56269;SDS011;42176;43.240;27.880;2022-09-21T04:26:44;8.25;;;3.33;;
56269;SDS011;42176;43.240;27.880;2022-09-21T04:29:11;11.68;;;2.83;;
56269;SDS011;42176;43.240;27.880;2022-09-21T04:31:37;15.73;;;3.05;;
56269;SDS011;42176;43.240;27.880;2022-09-21T04:34:03;8.27;;;2.72;;
56269;SDS011;42176;43.240;27.880;2022-09-21T04:36:28;4.78;;;2.22;;
56269;SDS011;42176;43.240;27.880;2022-09-21T04:38:56;3.30;;;2.20;;
56269;SDS011;42176;43.240;27.880;2022-09-21T04:41:24;11.82;;;2.03;;
56269;SDS011;42176;43.240;27.880;2022-09-21T04:43:49;9.40;;;2.38;;
56269;SDS011;42176;43.240;27.880;2022-09-21T04:46:16;10.63;;;1.90;;
56269;SDS011;42176;43.240;27.880;2022-09-21T04:48:42;14.32;;;3.17;;
56269;SDS011;42176;43.240;27.880;2022-09-21T04:51:09;5.28;;;2.13;;
56269;SDS011;42176;43.240;27.880;2022-09-21T04:53:36;5.22;;;1.90;;
56269;SDS011;42176;43.240;27.880;2022-09-21T04:56:03;6.97;;;2.33;;
56269;SDS011;42176;43.240;27.880;2022-09-21T04:58:30;9.10;;;2.67;;
56269;SDS011;42176;43.240;27.880;2022-09-21T05:00:56;8.50;;;3.35;;
56269;SDS011;42176;43.240;27.880;2022-09-21T05:03:22;9.23;;;3.22;;
56269;SDS011;42176;43.240;27.880;2022-09-21T05:05:50;14.60;;;4.00;;
56269;SDS011;42176;43.240;27.880;2022-09-21T05:08:17;12.32;;;3.97;;
56269;SDS011;42176;43.240;27.880;2022-09-21T05:11:01;12.43;;;3.17;;
56269;SDS011;42176;43.240;27.880;2022-09-21T05:13:27;15.82;;;3.30;;
56269;SDS011;42176;43.240;27.880;2022-09-21T05:15:52;5.45;;;3.03;;
56269;SDS011;42176;43.240;27.880;2022-09-21T05:18:18;6.38;;;2.28;;
56269;SDS011;42176;43.240;27.880;2022-09-21T05:20:43;5.70;;;2.88;;
56269;SDS011;42176;43.240;27.880;2022-09-21T05:23:08;3.60;;;2.80;;
56269;SDS011;42176;43.240;27.880;2022-09-21T05:25:34;11.68;;;3.03;;
56269;SDS011;42176;43.240;27.880;2022-09-21T05:27:59;6.45;;;2.50;;
56269;SDS011;42176;43.240;27.880;2022-09-21T05:30:25;6.78;;;2.50;;
56269;SDS011;42176;43.240;27.880;2022-09-21T05:32:56;5.65;;;2.50;;
56269;SDS011;42176;43.240;27.880;2022-09-21T05:38:05;4.55;;;2.28;;
56269;SDS011;42176;43.240;27.880;2022-09-21T05:40:37;3.30;;;3.00;;
56269;SDS011;42176;43.240;27.880;2022-09-21T05:43:03;4.80;;;2.58;;
56269;SDS011;42176;43.240;27.880;2022-09-21T05:45:28;3.63;;;2.25;;
56269;SDS011;42176;43.240;27.880;2022-09-21T05:56:03;3.88;;;2.90;;
56269;SDS011;42176;43.240;27.880;2022-09-21T06:04:09;3.20;;;1.98;;
56269;SDS011;42176;43.240;27.880;2022-09-21T06:06:36;3.80;;;2.17;;
56269;SDS011;42176;43.240;27.880;2022-09-21T06:09:02;2.30;;;2.10;;
56269;SDS011;42176;43.240;27.880;2022-09-21T06:11:27;3.45;;;2.03;;
56269;SDS011;42176;43.240;27.880;2022-09-21T06:13:53;4.25;;;2.00;;
56269;SDS011;42176;43.240;27.880;2022-09-21T06:16:18;7.95;;;1.85;;
56269;SDS011;42176;43.240;27.880;2022-09-21T06:18:45;7.50;;;1.88;;
56269;SDS011;42176;43.240;27.880;2022-09-21T06:21:10;5.03;;;1.98;;
56269;SDS011;42176;43.240;27.880;2022-09-21T06:23:36;2.42;;;2.10;;
56269;SDS011;42176;43.240;27.880;2022-09-21T06:26:04;6.35;;;1.42;;
56269;SDS011;42176;43.240;27.880;2022-09-21T06:28:30;3.72;;;1.63;;
56269;SDS011;42176;43.240;27.880;2022-09-21T06:30:55;6.18;;;1.90;;
56269;SDS011;42176;43.240;27.880;2022-09-21T06:33:22;1.38;;;1.27;;
56269;SDS011;42176;43.240;27.880;2022-09-21T06:35:55;1.20;;;1.20;;
56269;SDS011;42176;43.240;27.880;2022-09-21T06:38:22;10.05;;;1.77;;
56269;SDS011;42176;43.240;27.880;2022-09-21T06:40:49;5.13;;;1.80;;
56269;SDS011;42176;43.240;27.880;2022-09-21T06:43:15;3.17;;;1.33;;
56269;SDS011;42176;43.240;27.880;2022-09-21T06:45:41;1.65;;;0.93;;
56269;SDS011;42176;43.240;27.880;2022-09-21T06:48:06;1.58;;;1.00;;
56269;SDS011;42176;43.240;27.880;2022-09-21T06:50:35;2.08;;;1.13;;
56269;SDS011;42176;43.240;27.880;2022-09-21T06:53:03;2.28;;;1.60;;
56269;SDS011;42176;43.240;27.880;2022-09-21T06:55:29;5.03;;;1.73;;
56269;SDS011;42176;43.240;27.880;2022-09-21T06:57:59;3.03;;;1.20;;
56269;SDS011;42176;43.240;27.880;2022-09-21T07:00:26;2.47;;;1.30;;
56269;SDS011;42176;43.240;27.880;2022-09-21T07:02:51;1.55;;;1.45;;
56269;SDS011;42176;43.240;27.880;2022-09-21T07:05:17;1.05;;;1.00;;
56269;SDS011;42176;43.240;27.880;2022-09-21T07:07:42;2.53;;;1.20;;
56269;SDS011;42176;43.240;27.880;2022-09-21T07:10:10;2.20;;;1.25;;
56269;SDS011;42176;43.240;27.880;2022-09-21T07:12:42;2.90;;;1.23;;
56269;SDS011;42176;43.240;27.880;2022-09-21T07:15:07;1.85;;;0.90;;
56269;SDS011;42176;43.240;27.880;2022-09-21T07:17:37;3.95;;;1.30;;
56269;SDS011;42176;43.240;27.880;2022-09-21T07:20:03;2.70;;;0.88;;
56269;SDS011;42176;43.240;27.880;2022-09-21T07:22:33;7.63;;;1.52;;
56269;SDS011;42176;43.240;27.880;2022-09-21T07:24:59;0.98;;;0.90;;
56269;SDS011;42176;43.240;27.880;2022-09-21T07:27:26;1.33;;;0.98;;
56269;SDS011;42176;43.240;27.880;2022-09-21T07:29:53;1.85;;;1.10;;
56269;SDS011;42176;43.240;27.880;2022-09-21T07:32:19;1.13;;;1.10;;
56269;SDS011;42176;43.240;27.880;2022-09-21T07:34:45;6.93;;;1.45;;
56269;SDS011;42176;43.240;27.880;2022-09-21T07:37:11;2.38;;;1.23;;
56269;SDS011;42176;43.240;27.880;2022-09-21T07:39:37;1.02;;;0.70;;
56269;SDS011;42176;43.240;27.880;2022-09-21T07:42:03;9.27;;;1.23;;
56269;SDS011;42176;43.240;27.880;2022-09-21T07:44:32;1.13;;;1.02;;
56269;SDS011;42176;43.240;27.880;2022-09-21T07:46:58;1.75;;;1.02;;
56269;SDS011;42176;43.240;27.880;2022-09-21T07:49:24;1.10;;;1.10;;
56269;SDS011;42176;43.240;27.880;2022-09-21T07:51:49;1.10;;;0.82;;
56269;SDS011;42176;43.240;27.880;2022-09-21T07:54:17;1.58;;;0.88;;
56269;SDS011;42176;43.240;27.880;2022-09-21T07:56:45;0.80;;;0.75;;
56269;SDS011;42176;43.240;27.880;2022-09-21T07:59:30;0.85;;;0.85;;
56269;SDS011;42176;43.240;27.880;2022-09-21T08:01:58;3.80;;;1.00;;
56269;SDS011;42176;43.240;27.880;2022-09-21T08:04:24;1.33;;;0.90;;
56269;SDS011;42176;43.240;27.880;2022-09-21T08:06:50;1.35;;;0.93;;
56269;SDS011;42176;43.240;27.880;2022-09-21T08:09:15;3.55;;;1.00;;
56269;SDS011;42176;43.240;27.880;2022-09-21T08:11:40;1.52;;;1.42;;
56269;SDS011;42176;43.240;27.880;2022-09-21T08:14:09;6.70;;;1.30;;
56269;SDS011;42176;43.240;27.880;2022-09-21T08:16:36;2.78;;;1.25;;
56269;SDS011;42176;43.240;27.880;2022-09-21T08:19:03;2.90;;;0.70;;
56269;SDS011;42176;43.240;27.880;2022-09-21T08:21:28;3.25;;;0.90;;
56269;SDS011;42176;43.240;27.880;2022-09-21T08:23:57;0.65;;;0.65;;
56269;SDS011;42176;43.240;27.880;2022-09-21T08:26:22;0.88;;;0.80;;
56269;SDS011;42176;43.240;27.880;2022-09-21T08:28:49;1.55;;;1.10;;
56269;SDS011;42176;43.240;27.880;2022-09-21T08:31:17;0.90;;;0.90;;
56269;SDS011;42176;43.240;27.880;2022-09-21T08:34:02;1.27;;;1.17;;
56269;SDS011;42176;43.240;27.880;2022-09-21T08:36:28;2.35;;;1.13;;
56269;SDS011;42176;43.240;27.880;2022-09-21T08:39:06;1.10;;;1.00;;
56269;SDS011;42176;43.240;27.880;2022-09-21T08:44:09;2.83;;;1.20;;
56269;SDS011;42176;43.240;27.880;2022-09-21T08:46:39;1.00;;;1.00;;
56269;SDS011;42176;43.240;27.880;2022-09-21T08:49:15;4.85;;;1.27;;
56269;SDS011;42176;43.240;27.880;2022-09-21T08:52:00;1.58;;;1.10;;
56269;SDS011;42176;43.240;27.880;2022-09-21T08:54:33;0.90;;;0.90;;
56269;SDS011;42176;43.240;27.880;2022-09-21T08:57:04;1.05;;;0.98;;
56269;SDS011;42176;43.240;27.880;2022-09-21T08:59:33;3.92;;;0.95;;
56269;SDS011;42176;43.240;27.880;2022-09-21T09:07:49;5.13;;;0.73;;
56269;SDS011;42176;43.240;27.880;2022-09-21T09:21:38;0.85;;;0.35;;
56269;SDS011;42176;43.240;27.880;2022-09-21T09:24:08;5.30;;;0.55;;
56269;SDS011;42176;43.240;27.880;2022-09-21T09:26:40;2.35;;;1.25;;
56269;SDS011;42176;43.240;27.880;2022-09-21T09:29:13;0.40;;;0.40;;
56269;SDS011;42176;43.240;27.880;2022-09-21T09:31:45;0.65;;;0.50;;
56269;SDS011;42176;43.240;27.880;2022-09-21T09:36:46;2.58;;;0.50;;
56269;SDS011;42176;43.240;27.880;2022-09-21T09:39:15;0.40;;;0.38;;
56269;SDS011;42176;43.240;27.880;2022-09-21T09:41:45;0.50;;;0.50;;
56269;SDS011;42176;43.240;27.880;2022-09-21T09:52:44;2.17;;;0.70;;
56269;SDS011;42176;43.240;27.880;2022-09-21T09:55:15;3.53;;;0.90;;
56269;SDS011;42176;43.240;27.880;2022-09-21T09:57:45;3.70;;;0.70;;
56269;SDS011;42176;43.240;27.880;2022-09-21T10:00:12;4.60;;;1.42;;
56269;SDS011;42176;43.240;27.880;2022-09-21T10:05:30;0.57;;;0.50;;
56269;SDS011;42176;43.240;27.880;2022-09-21T10:07:57;0.55;;;0.40;;
56269;SDS011;42176;43.240;27.880;2022-09-21T10:10:35;0.43;;;0.43;;
56269;SDS011;42176;43.240;27.880;2022-09-21T10:15:56;2.42;;;0.77;;
56269;SDS011;42176;43.240;27.880;2022-09-21T10:18:36;1.38;;;0.50;;
56269;SDS011;42176;43.240;27.880;2022-09-21T10:24:04;1.67;;;0.60;;
56269;SDS011;42176;43.240;27.880;2022-09-21T10:34:40;1.15;;;0.50;;
56269;SDS011;42176;43.240;27.880;2022-09-21T10:39:53;0.30;;;0.30;;
56269;SDS011;42176;43.240;27.880;2022-09-21T10:42:20;0.80;;;0.50;;
56269;SDS011;42176;43.240;27.880;2022-09-21T10:44:46;0.70;;;0.40;;
56269;SDS011;42176;43.240;27.880;2022-09-21T10:49:46;0.30;;;0.30;;
56269;SDS011;42176;43.240;27.880;2022-09-21T10:52:14;1.25;;;0.63;;
56269;SDS011;42176;43.240;27.880;2022-09-21T10:54:43;1.88;;;0.52;;
56269;SDS011;42176;43.240;27.880;2022-09-21T10:57:15;7.32;;;0.50;;
56269;SDS011;42176;43.240;27.880;2022-09-21T10:59:43;0.40;;;0.40;;
56269;SDS011;42176;43.240;27.880;2022-09-21T11:02:26;0.93;;;0.40;;
56269;SDS011;42176;43.240;27.880;2022-09-21T11:04:56;0.60;;;0.40;;
56269;SDS011;42176;43.240;27.880;2022-09-21T11:07:31;0.43;;;0.43;;
56269;SDS011;42176;43.240;27.880;2022-09-21T11:12:50;2.17;;;0.93;;
56269;SDS011;42176;43.240;27.880;2022-09-21T11:21:41;2.55;;;0.60;;
56269;SDS011;42176;43.240;27.880;2022-09-21T11:27:17;0.50;;;0.50;;
56269;SDS011;42176;43.240;27.880;2022-09-21T11:30:00;0.50;;;0.40;;
56269;SDS011;42176;43.240;27.880;2022-09-21T11:54:54;2.00;;;0.90;;
56269;SDS011;42176;43.240;27.880;2022-09-21T12:06:02;1.60;;;0.80;;
56269;SDS011;42176;43.240;27.880;2022-09-21T12:11:42;0.88;;;0.80;;
56269;SDS011;42176;43.240;27.880;2022-09-21T12:22:39;1.48;;;0.70;;
56269;SDS011;42176;43.240;27.880;2022-09-21T12:25:20;1.15;;;0.80;;
56269;SDS011;42176;43.240;27.880;2022-09-21T12:31:03;1.10;;;0.88;;
56269;SDS011;42176;43.240;27.880;2022-09-21T12:33:37;1.30;;;0.40;;
56269;SDS011;42176;43.240;27.880;2022-09-21T12:36:19;1.95;;;0.88;;
56269;SDS011;42176;43.240;27.880;2022-09-21T12:39:00;1.42;;;1.20;;
56269;SDS011;42176;43.240;27.880;2022-09-21T12:41:46;1.42;;;0.60;;
56269;SDS011;42176;43.240;27.880;2022-09-21T12:44:33;0.75;;;0.70;;
56269;SDS011;42176;43.240;27.880;2022-09-21T12:50:27;0.90;;;0.77;;
56269;SDS011;42176;43.240;27.880;2022-09-21T12:53:00;1.35;;;0.63;;
56269;SDS011;42176;43.240;27.880;2022-09-21T12:55:33;1.77;;;0.52;;
56269;SDS011;42176;43.240;27.880;2022-09-21T13:09:23;3.40;;;1.40;;
56269;SDS011;42176;43.240;27.880;2022-09-21T13:11:59;2.58;;;1.10;;
56269;SDS011;42176;43.240;27.880;2022-09-21T13:14:35;1.65;;;1.02;;
56269;SDS011;42176;43.240;27.880;2022-09-21T13:17:06;1.55;;;1.05;;
56269;SDS011;42176;43.240;27.880;2022-09-21T13:19:44;2.22;;;1.00;;
56269;SDS011;42176;43.240;27.880;2022-09-21T13:22:25;1.38;;;0.70;;
56269;SDS011;42176;43.240;27.880;2022-09-21T13:25:03;1.60;;;0.63;;
56269;SDS011;42176;43.240;27.880;2022-09-21T13:30:36;0.80;;;0.75;;
56269;SDS011;42176;43.240;27.880;2022-09-21T13:33:03;2.15;;;1.67;;
56269;SDS011;42176;43.240;27.880;2022-09-21T13:38:25;3.08;;;0.75;;
56269;SDS011;42176;43.240;27.880;2022-09-21T13:54:33;4.20;;;0.50;;
56269;SDS011;42176;43.240;27.880;2022-09-21T13:59:58;0.75;;;0.50;;
56269;SDS011;42176;43.240;27.880;2022-09-21T14:10:38;1.33;;;0.45;;
56269;SDS011;42176;43.240;27.880;2022-09-21T14:13:06;2.22;;;0.50;;
56269;SDS011;42176;43.240;27.880;2022-09-21T14:15:52;1.23;;;0.77;;
56269;SDS011;42176;43.240;27.880;2022-09-21T14:18:19;3.70;;;0.77;;
56269;SDS011;42176;43.240;27.880;2022-09-21T14:21:06;3.90;;;1.25;;
56269;SDS011;42176;43.240;27.880;2022-09-21T14:23:32;1.63;;;0.95;;
56269;SDS011;42176;43.240;27.880;2022-09-21T14:26:48;0.88;;;0.63;;
56269;SDS011;42176;43.240;27.880;2022-09-21T14:32:18;1.60;;;0.60;;
56269;SDS011;42176;43.240;27.880;2022-09-21T14:34:48;1.40;;;0.43;;
56269;SDS011;42176;43.240;27.880;2022-09-21T14:37:27;0.30;;;0.30;;
56269;SDS011;42176;43.240;27.880;2022-09-21T14:39:53;0.52;;;0.40;;
56269;SDS011;42176;43.240;27.880;2022-09-21T14:42:21;1.38;;;0.25;;
56269;SDS011;42176;43.240;27.880;2022-09-21T14:44:51;1.10;;;0.40;;
56269;SDS011;42176;43.240;27.880;2022-09-21T14:52:54;0.38;;;0.38;;
56269;SDS011;42176;43.240;27.880;2022-09-21T14:58:15;0.85;;;0.45;;
56269;SDS011;42176;43.240;27.880;2022-09-21T15:00:46;0.55;;;0.55;;
56269;SDS011;42176;43.240;27.880;2022-09-21T15:03:23;0.50;;;0.50;;
56269;SDS011;42176;43.240;27.880;2022-09-21T15:06:06;0.47;;;0.47;;
56269;SDS011;42176;43.240;27.880;2022-09-21T15:18:43;4.70;;;1.80;;
56269;SDS011;42176;43.240;27.880;2022-09-21T15:26:51;0.43;;;0.43;;
56269;SDS011;42176;43.240;27.880;2022-09-21T15:29:13;0.40;;;0.20;;
56269;SDS011;42176;43.240;27.880;2022-09-21T15:31:50;1.25;;;0.30;;
56269;SDS011;42176;43.240;27.880;2022-09-21T15:34:17;0.47;;;0.30;;
56269;SDS011;42176;43.240;27.880;2022-09-21T15:36:42;0.52;;;0.40;;
56269;SDS011;42176;43.240;27.880;2022-09-21T15:41:55;0.57;;;0.57;;
56269;SDS011;42176;43.240;27.880;2022-09-21T15:44:32;0.65;;;0.35;;
56269;SDS011;42176;43.240;27.880;2022-09-21T15:46:58;2.47;;;0.40;;
56269;SDS011;42176;43.240;27.880;2022-09-21T15:49:27;0.30;;;0.30;;
56269;SDS011;42176;43.240;27.880;2022-09-21T15:51:58;0.20;;;0.20;;
56269;SDS011;42176;43.240;27.880;2022-09-21T15:54:31;0.30;;;0.30;;
56269;SDS011;42176;43.240;27.880;2022-09-21T15:57:04;0.38;;;0.30;;
56269;SDS011;42176;43.240;27.880;2022-09-21T15:59:48;0.45;;;0.30;;
56269;SDS011;42176;43.240;27.880;2022-09-21T16:02:16;0.50;;;0.50;;
56269;SDS011;42176;43.240;27.880;2022-09-21T16:04:46;1.30;;;0.60;;
56269;SDS011;42176;43.240;27.880;2022-09-21T16:07:25;0.88;;;0.55;;
56269;SDS011;42176;43.240;27.880;2022-09-21T16:09:58;0.40;;;0.40;;
56269;SDS011;42176;43.240;27.880;2022-09-21T16:14:50;0.77;;;0.77;;
56269;SDS011;42176;43.240;27.880;2022-09-21T16:17:25;0.68;;;0.40;;
56269;SDS011;42176;43.240;27.880;2022-09-21T16:22:40;0.50;;;0.47;;
56269;SDS011;42176;43.240;27.880;2022-09-21T16:28:43;0.93;;;0.50;;
56269;SDS011;42176;43.240;27.880;2022-09-21T16:30:48;1.13;;;0.57;;
56269;SDS011;42176;43.240;27.880;2022-09-21T16:36:47;1.15;;;0.47;;
56269;SDS011;42176;43.240;27.880;2022-09-21T16:38:49;4.72;;;1.75;;
56269;SDS011;42176;43.240;27.880;2022-09-21T16:41:17;5.75;;;1.67;;
56269;SDS011;42176;43.240;27.880;2022-09-21T16:43:45;3.15;;;1.70;;
56269;SDS011;42176;43.240;27.880;2022-09-21T16:46:14;1.85;;;1.52;;
56269;SDS011;42176;43.240;27.880;2022-09-21T16:48:39;1.75;;;1.25;;
56269;SDS011;42176;43.240;27.880;2022-09-21T16:51:09;2.13;;;1.00;;
56269;SDS011;42176;43.240;27.880;2022-09-21T16:53:36;4.05;;;2.00;;
56269;SDS011;42176;43.240;27.880;2022-09-21T16:56:01;0.65;;;0.65;;
56269;SDS011;42176;43.240;27.880;2022-09-21T16:58:27;0.70;;;0.55;;
56269;SDS011;42176;43.240;27.880;2022-09-21T17:00:52;0.63;;;0.32;;
56269;SDS011;42176;43.240;27.880;2022-09-21T17:03:18;0.80;;;0.50;;
56269;SDS011;42176;43.240;27.880;2022-09-21T17:05:44;2.28;;;0.40;;
56269;SDS011;42176;43.240;27.880;2022-09-21T17:08:11;0.68;;;0.40;;
56269;SDS011;42176;43.240;27.880;2022-09-21T17:10:40;0.68;;;0.68;;
56269;SDS011;42176;43.240;27.880;2022-09-21T17:13:09;1.48;;;0.60;;
56269;SDS011;42176;43.240;27.880;2022-09-21T17:15:35;3.22;;;0.60;;
56269;SDS011;42176;43.240;27.880;2022-09-21T17:18:11;1.10;;;0.77;;
56269;SDS011;42176;43.240;27.880;2022-09-21T17:20:41;0.95;;;0.68;;
56269;SDS011;42176;43.240;27.880;2022-09-21T17:23:08;2.28;;;0.80;;
56269;SDS011;42176;43.240;27.880;2022-09-21T17:25:34;0.80;;;0.60;;
56269;SDS011;42176;43.240;27.880;2022-09-21T17:28:01;1.40;;;0.45;;
56269;SDS011;42176;43.240;27.880;2022-09-21T17:30:28;4.47;;;1.00;;
56269;SDS011;42176;43.240;27.880;2022-09-21T17:32:54;2.15;;;1.20;;
56269;SDS011;42176;43.240;27.880;2022-09-21T17:37:59;0.43;;;0.43;;
56269;SDS011;42176;43.240;27.880;2022-09-21T17:40:26;1.27;;;0.85;;
56269;SDS011;42176;43.240;27.880;2022-09-21T17:42:56;0.63;;;0.47;;
56269;SDS011;42176;43.240;27.880;2022-09-21T17:48:16;2.28;;;0.38;;
56269;SDS011;42176;43.240;27.880;2022-09-21T17:50:44;0.68;;;0.50;;
56269;SDS011;42176;43.240;27.880;2022-09-21T17:53:09;0.55;;;0.45;;
56269;SDS011;42176;43.240;27.880;2022-09-21T17:55:55;1.23;;;0.45;;
56269;SDS011;42176;43.240;27.880;2022-09-21T17:58:32;0.65;;;0.43;;
56269;SDS011;42176;43.240;27.880;2022-09-21T18:04:03;0.50;;;0.50;;
56269;SDS011;42176;43.240;27.880;2022-09-21T18:06:30;0.93;;;0.70;;
56269;SDS011;42176;43.240;27.880;2022-09-21T18:08:56;1.10;;;0.60;;
56269;SDS011;42176;43.240;27.880;2022-09-21T18:19:37;1.02;;;0.65;;
56269;SDS011;42176;43.240;27.880;2022-09-21T18:24:37;2.80;;;0.88;;
56269;SDS011;42176;43.240;27.880;2022-09-21T18:27:03;4.00;;;0.75;;
56269;SDS011;42176;43.240;27.880;2022-09-21T18:29:29;1.20;;;0.50;;
56269;SDS011;42176;43.240;27.880;2022-09-21T18:40:27;5.40;;;0.68;;
56269;SDS011;42176;43.240;27.880;2022-09-21T18:49:14;0.98;;;0.25;;
56269;SDS011;42176;43.240;27.880;2022-09-21T18:54:36;0.82;;;0.38;;
56269;SDS011;42176;43.240;27.880;2022-09-21T18:57:11;0.40;;;0.40;;
56269;SDS011;42176;43.240;27.880;2022-09-21T18:59:38;1.05;;;0.38;;
56269;SDS011;42176;43.240;27.880;2022-09-21T19:04:56;0.43;;;0.43;;
56269;SDS011;42176;43.240;27.880;2022-09-21T19:07:36;1.33;;;0.50;;
56269;SDS011;42176;43.240;27.880;2022-09-21T19:23:59;0.52;;;0.40;;
56269;SDS011;42176;43.240;27.880;2022-09-21T19:29:24;0.70;;;0.50;;
56269;SDS011;42176;43.240;27.880;2022-09-21T19:32:14;0.70;;;0.60;;
56269;SDS011;42176;43.240;27.880;2022-09-21T19:34:41;1.00;;;0.75;;
56269;SDS011;42176;43.240;27.880;2022-09-21T19:37:07;1.58;;;0.60;;
56269;SDS011;42176;43.240;27.880;2022-09-21T19:39:39;0.75;;;0.47;;
56269;SDS011;42176;43.240;27.880;2022-09-21T19:42:12;0.70;;;0.52;;
56269;SDS011;42176;43.240;27.880;2022-09-21T19:45:01;1.20;;;0.30;;
56269;SDS011;42176;43.240;27.880;2022-09-21T19:47:29;2.53;;;0.55;;